VCP56M EDDL-EGKK
Flight info
| Callsign | VCP56M |
|---|---|
| Flight time | 1h 1m |
| Altitude | 32000 |
| Route | MODRU7Z MODRU Z717 MAS UM617 SOGRI DCT DENUT L610 TEBRA |
| Aircraft | B738/M-SDE2E3FGHIRWXY/LB1 |
Departure
| Time | 2026-05-04 20:11 |
|---|---|
| Airport | Düsseldorf Airport (EDDL) |
Arrival
| Time | 2026-05-04 21:12 |
|---|---|
| Airport | London Gatwick Airport (EGKK) |
| Time | Latitude | Longitude | Altitude | Speed | Heading |
|---|---|---|---|---|---|
| 2026-05-04 19:32 | 51.27633 | 6.75926 | 114 ft | 0 kts | 67° |
| 2026-05-04 19:53 | 51.27632 | 6.75923 | 117 ft | 4 kts | 67° |
| 2026-05-04 19:53 | 51.27619 | 6.75876 | 112 ft | 4 kts | 64° |
| 2026-05-04 19:53 | 51.27611 | 6.75853 | 113 ft | 2 kts | 46° |
| 2026-05-04 19:54 | 51.27602 | 6.75844 | 114 ft | 2 kts | 348° |
| 2026-05-04 19:54 | 51.27592 | 6.75849 | 112 ft | 2 kts | 333° |
| 2026-05-04 19:54 | 51.27586 | 6.75854 | 112 ft | 0 kts | 331° |
| 2026-05-04 19:56 | 51.27592 | 6.75849 | 112 ft | 2 kts | 331° |
| 2026-05-04 19:56 | 51.27612 | 6.75832 | 113 ft | 4 kts | 333° |
| 2026-05-04 19:56 | 51.27652 | 6.75808 | 114 ft | 4 kts | 348° |
| 2026-05-04 19:56 | 51.27661 | 6.75807 | 114 ft | 1 kts | 354° |
| 2026-05-04 19:57 | 51.27671 | 6.75806 | 115 ft | 3 kts | 0° |
| 2026-05-04 19:57 | 51.27712 | 6.75808 | 115 ft | 7 kts | 1° |
| 2026-05-04 19:57 | 51.27758 | 6.75809 | 117 ft | 7 kts | 1° |
| 2026-05-04 19:57 | 51.27809 | 6.75811 | 113 ft | 8 kts | 1° |
| 2026-05-04 19:58 | 51.27877 | 6.75813 | 117 ft | 10 kts | 1° |
| 2026-05-04 19:58 | 51.27946 | 6.75816 | 115 ft | 10 kts | 4° |
| 2026-05-04 19:58 | 51.27998 | 6.75819 | 115 ft | 6 kts | 1° |
| 2026-05-04 19:58 | 51.28041 | 6.75841 | 117 ft | 10 kts | 35° |
| 2026-05-04 19:59 | 51.28096 | 6.75949 | 115 ft | 12 kts | 52° |
| 2026-05-04 19:59 | 51.28125 | 6.76009 | 117 ft | 3 kts | 53° |
| 2026-05-04 19:59 | 51.28128 | 6.76017 | 117 ft | 0 kts | 53° |
| 2026-05-04 20:00 | 51.28135 | 6.76030 | 116 ft | 7 kts | 53° |
| 2026-05-04 20:00 | 51.28182 | 6.76130 | 116 ft | 15 kts | 53° |
| 2026-05-04 20:00 | 51.28248 | 6.76268 | 117 ft | 16 kts | 52° |
| 2026-05-04 20:01 | 51.28325 | 6.76430 | 116 ft | 20 kts | 53° |
| 2026-05-04 20:01 | 51.28413 | 6.76617 | 117 ft | 20 kts | 52° |
| 2026-05-04 20:01 | 51.28495 | 6.76788 | 115 ft | 19 kts | 54° |
| 2026-05-04 20:01 | 51.28574 | 6.76954 | 116 ft | 18 kts | 55° |
| 2026-05-04 20:02 | 51.28651 | 6.77114 | 117 ft | 18 kts | 52° |
| 2026-05-04 20:02 | 51.28724 | 6.77267 | 116 ft | 17 kts | 53° |
| 2026-05-04 20:02 | 51.28802 | 6.77432 | 117 ft | 19 kts | 53° |
| 2026-05-04 20:02 | 51.28883 | 6.77600 | 115 ft | 19 kts | 53° |
| 2026-05-04 20:03 | 51.28960 | 6.77763 | 116 ft | 18 kts | 52° |
| 2026-05-04 20:03 | 51.29030 | 6.77909 | 117 ft | 13 kts | 53° |
| 2026-05-04 20:03 | 51.29075 | 6.78003 | 114 ft | 6 kts | 52° |
| 2026-05-04 20:03 | 51.29081 | 6.78016 | 116 ft | 1 kts | 53° |
| 2026-05-04 20:04 | 51.29086 | 6.78027 | 117 ft | 1 kts | 53° |
| 2026-05-04 20:04 | 51.29086 | 6.78028 | 117 ft | 0 kts | 53° |
| 2026-05-04 20:04 | 51.29089 | 6.78034 | 117 ft | 2 kts | 53° |
| 2026-05-04 20:04 | 51.29097 | 6.78050 | 117 ft | 2 kts | 53° |
| 2026-05-04 20:05 | 51.29103 | 6.78064 | 117 ft | 1 kts | 52° |
| 2026-05-04 20:05 | 51.29107 | 6.78072 | 114 ft | 0 kts | 52° |
| 2026-05-04 20:09 | 51.29108 | 6.78073 | 117 ft | 1 kts | 52° |
| 2026-05-04 20:09 | 51.29142 | 6.78145 | 116 ft | 15 kts | 53° |
| 2026-05-04 20:09 | 51.29219 | 6.78280 | 117 ft | 17 kts | 37° |
| 2026-05-04 20:09 | 51.29304 | 6.78379 | 117 ft | 15 kts | 36° |
| 2026-05-04 20:10 | 51.29386 | 6.78464 | 114 ft | 14 kts | 24° |
| 2026-05-04 20:10 | 51.29475 | 6.78456 | 115 ft | 11 kts | 332° |
| 2026-05-04 20:10 | 51.29479 | 6.78381 | 115 ft | 7 kts | 230° |
| 2026-05-04 20:10 | 51.29375 | 6.78164 | 116 ft | 60 kts | 232° |
| 2026-05-04 20:11 | 51.28953 | 6.77279 | 114 ft | 138 kts | 233° |
| 2026-05-04 20:11 | 51.28277 | 6.75820 | 446 ft | 174 kts | 232° |
| 2026-05-04 20:11 | 51.27573 | 6.74274 | 1583 ft | 165 kts | 231° |
| 2026-05-04 20:11 | 51.26887 | 6.72806 | 2544 ft | 165 kts | 232° |
| 2026-05-04 20:12 | 51.26197 | 6.71330 | 3295 ft | 172 kts | 232° |
| 2026-05-04 20:12 | 51.25427 | 6.69690 | 3600 ft | 200 kts | 232° |
| 2026-05-04 20:12 | 51.24573 | 6.67867 | 4083 ft | 209 kts | 232° |
| 2026-05-04 20:12 | 51.23782 | 6.65852 | 4592 ft | 221 kts | 252° |
| 2026-05-04 20:13 | 51.23784 | 6.63412 | 5230 ft | 229 kts | 287° |
| 2026-05-04 20:13 | 51.24716 | 6.61255 | 5604 ft | 247 kts | 319° |
| 2026-05-04 20:13 | 51.26078 | 6.59510 | 6197 ft | 254 kts | 321° |
| 2026-05-04 20:13 | 51.27488 | 6.57753 | 6775 ft | 264 kts | 321° |
| 2026-05-04 20:14 | 51.28966 | 6.55904 | 7430 ft | 271 kts | 321° |
| 2026-05-04 20:14 | 51.30429 | 6.54056 | 8275 ft | 273 kts | 321° |
| 2026-05-04 20:14 | 51.31929 | 6.52150 | 9081 ft | 277 kts | 321° |
| 2026-05-04 20:14 | 51.33443 | 6.50212 | 9865 ft | 281 kts | 321° |
| 2026-05-04 20:15 | 51.34980 | 6.48239 | 10571 ft | 285 kts | 321° |
| 2026-05-04 20:15 | 51.36535 | 6.46240 | 11280 ft | 289 kts | 320° |
| 2026-05-04 20:15 | 51.38079 | 6.44160 | 11983 ft | 292 kts | 311° |
| 2026-05-04 20:15 | 51.39067 | 6.41342 | 12583 ft | 296 kts | 282° |
| 2026-05-04 20:16 | 51.39126 | 6.38047 | 13142 ft | 301 kts | 256° |
| 2026-05-04 20:16 | 51.38303 | 6.34992 | 13852 ft | 301 kts | 233° |
| 2026-05-04 20:16 | 51.36888 | 6.32604 | 14529 ft | 300 kts | 220° |
| 2026-05-04 20:16 | 51.35289 | 6.30437 | 15207 ft | 302 kts | 219° |
| 2026-05-04 20:17 | 51.33672 | 6.28264 | 15877 ft | 305 kts | 219° |
| 2026-05-04 20:17 | 51.31881 | 6.26434 | 16421 ft | 312 kts | 202° |
| 2026-05-04 20:17 | 51.29787 | 6.25165 | 16571 ft | 332 kts | 199° |
| 2026-05-04 20:17 | 51.27549 | 6.23912 | 16718 ft | 350 kts | 199° |
| 2026-05-04 20:18 | 51.25192 | 6.22595 | 16860 ft | 368 kts | 199° |
| 2026-05-04 20:18 | 51.22726 | 6.21199 | 17002 ft | 384 kts | 199° |
| 2026-05-04 20:18 | 51.20218 | 6.19759 | 17374 ft | 392 kts | 200° |
| 2026-05-04 20:18 | 51.17645 | 6.18269 | 17965 ft | 394 kts | 200° |
| 2026-05-04 20:19 | 51.15062 | 6.16766 | 18490 ft | 397 kts | 200° |
| 2026-05-04 20:19 | 51.12464 | 6.15252 | 19025 ft | 399 kts | 200° |
| 2026-05-04 20:19 | 51.09854 | 6.13732 | 19541 ft | 400 kts | 200° |
| 2026-05-04 20:19 | 51.07230 | 6.12207 | 20038 ft | 403 kts | 200° |
| 2026-05-04 20:20 | 51.05485 | 6.11195 | 20358 ft | 404 kts | 200° |
| 2026-05-04 20:20 | 51.02930 | 6.09322 | 20793 ft | 408 kts | 214° |
| 2026-05-04 20:20 | 51.00822 | 6.06305 | 21269 ft | 411 kts | 230° |
| 2026-05-04 20:20 | 50.98835 | 6.01153 | 21909 ft | 416 kts | 240° |
| 2026-05-04 20:21 | 50.97495 | 5.97072 | 22317 ft | 419 kts | 243° |
| 2026-05-04 20:21 | 50.96489 | 5.92700 | 22703 ft | 425 kts | 252° |
| 2026-05-04 20:21 | 50.94966 | 5.83574 | 23552 ft | 430 kts | 252° |
| 2026-05-04 20:22 | 50.94436 | 5.80547 | 23779 ft | 431 kts | 252° |
| 2026-05-04 20:22 | 50.93615 | 5.75966 | 24160 ft | 432 kts | 251° |
| 2026-05-04 20:22 | 50.92518 | 5.69900 | 24688 ft | 433 kts | 251° |
| 2026-05-04 20:22 | 50.91691 | 5.65310 | 25063 ft | 434 kts | 251° |
| 2026-05-04 20:23 | 50.90861 | 5.60700 | 25339 ft | 437 kts | 252° |
| 2026-05-04 20:23 | 50.90023 | 5.56046 | 25590 ft | 441 kts | 252° |
| 2026-05-04 20:23 | 50.89465 | 5.52951 | 25822 ft | 441 kts | 252° |
| 2026-05-04 20:23 | 50.88620 | 5.48275 | 26192 ft | 442 kts | 252° |
| 2026-05-04 20:24 | 50.87773 | 5.43600 | 26535 ft | 442 kts | 252° |
| 2026-05-04 20:24 | 50.86921 | 5.38912 | 26844 ft | 444 kts | 252° |
| 2026-05-04 20:24 | 50.85785 | 5.32683 | 27225 ft | 446 kts | 252° |
| 2026-05-04 20:24 | 50.84921 | 5.27958 | 27535 ft | 447 kts | 251° |
| 2026-05-04 20:25 | 50.84337 | 5.24768 | 27802 ft | 446 kts | 251° |
| 2026-05-04 20:25 | 50.83488 | 5.20134 | 28280 ft | 443 kts | 251° |
| 2026-05-04 20:25 | 50.82631 | 5.15479 | 28813 ft | 440 kts | 252° |
| 2026-05-04 20:25 | 50.81792 | 5.10815 | 29046 ft | 443 kts | 255° |
| 2026-05-04 20:26 | 50.81470 | 5.05936 | 29191 ft | 452 kts | 270° |
| 2026-05-04 20:26 | 50.81904 | 5.01011 | 29611 ft | 454 kts | 282° |
| 2026-05-04 20:26 | 50.82995 | 4.96331 | 29978 ft | 457 kts | 292° |
| 2026-05-04 20:26 | 50.84415 | 4.91810 | 29954 ft | 460 kts | 294° |
| 2026-05-04 20:27 | 50.87384 | 4.82801 | 30331 ft | 462 kts | 295° |
| 2026-05-04 20:27 | 50.88837 | 4.78361 | 30715 ft | 459 kts | 294° |
| 2026-05-04 20:27 | 50.90285 | 4.73874 | 31114 ft | 456 kts | 294° |
| 2026-05-04 20:28 | 50.91708 | 4.69403 | 31530 ft | 453 kts | 294° |
| 2026-05-04 20:28 | 50.93116 | 4.64939 | 31854 ft | 452 kts | 294° |
| 2026-05-04 20:28 | 50.94518 | 4.60466 | 31965 ft | 455 kts | 294° |
| 2026-05-04 20:28 | 50.95898 | 4.56050 | 31979 ft | 456 kts | 294° |
| 2026-05-04 20:29 | 50.98708 | 4.47036 | 31962 ft | 452 kts | 294° |
| 2026-05-04 20:29 | 51.01485 | 4.38103 | 31963 ft | 451 kts | 294° |
| 2026-05-04 20:30 | 51.04250 | 4.29181 | 31977 ft | 449 kts | 294° |
| 2026-05-04 20:30 | 51.07004 | 4.20261 | 31977 ft | 449 kts | 294° |
| 2026-05-04 20:31 | 51.09731 | 4.11394 | 31967 ft | 450 kts | 294° |
| 2026-05-04 20:31 | 51.12474 | 4.02446 | 31970 ft | 450 kts | 293° |
| 2026-05-04 20:32 | 51.15213 | 3.93475 | 31977 ft | 451 kts | 293° |
| 2026-05-04 20:32 | 51.17954 | 3.84467 | 31968 ft | 452 kts | 293° |
| 2026-05-04 20:33 | 51.20694 | 3.75431 | 31977 ft | 453 kts | 294° |
| 2026-05-04 20:33 | 51.23367 | 3.66400 | 31971 ft | 453 kts | 289° |
| 2026-05-04 20:34 | 51.24894 | 3.56717 | 31979 ft | 450 kts | 279° |
| 2026-05-04 20:34 | 51.26088 | 3.46896 | 31978 ft | 451 kts | 279° |
| 2026-05-04 20:35 | 51.27366 | 3.37096 | 31987 ft | 451 kts | 280° |
| 2026-05-04 20:35 | 51.28638 | 3.27354 | 32005 ft | 451 kts | 280° |
| 2026-05-04 20:36 | 51.29908 | 3.17535 | 32003 ft | 451 kts | 279° |
| 2026-05-04 20:36 | 51.31166 | 3.07723 | 32011 ft | 450 kts | 279° |
| 2026-05-04 20:37 | 51.32415 | 2.97918 | 32015 ft | 450 kts | 279° |
| 2026-05-04 20:37 | 51.33649 | 2.88172 | 31887 ft | 439 kts | 279° |
| 2026-05-04 20:38 | 51.34235 | 2.83535 | 31871 ft | 422 kts | 279° |
| 2026-05-04 20:38 | 51.34810 | 2.78953 | 31778 ft | 423 kts | 278° |
| 2026-05-04 20:38 | 51.35395 | 2.74239 | 31327 ft | 439 kts | 278° |
| 2026-05-04 20:38 | 51.35996 | 2.69339 | 30661 ft | 456 kts | 278° |
| 2026-05-04 20:39 | 51.36606 | 2.64359 | 29910 ft | 456 kts | 278° |
| 2026-05-04 20:39 | 51.37214 | 2.59381 | 29041 ft | 456 kts | 279° |
| 2026-05-04 20:39 | 51.37821 | 2.54397 | 28293 ft | 454 kts | 278° |
| 2026-05-04 20:39 | 51.38419 | 2.49476 | 27731 ft | 448 kts | 278° |
| 2026-05-04 20:40 | 51.39008 | 2.44609 | 27184 ft | 443 kts | 278° |
| 2026-05-04 20:40 | 51.39581 | 2.39855 | 26607 ft | 438 kts | 279° |
| 2026-05-04 20:40 | 51.40153 | 2.35087 | 26065 ft | 434 kts | 279° |
| 2026-05-04 20:40 | 51.40718 | 2.30360 | 25499 ft | 430 kts | 279° |
| 2026-05-04 20:41 | 51.41276 | 2.25682 | 24946 ft | 425 kts | 279° |
| 2026-05-04 20:41 | 51.41835 | 2.21064 | 24414 ft | 420 kts | 279° |
| 2026-05-04 20:41 | 51.42396 | 2.16483 | 23875 ft | 419 kts | 279° |
| 2026-05-04 20:41 | 51.42958 | 2.11894 | 23286 ft | 420 kts | 279° |
| 2026-05-04 20:42 | 51.43518 | 2.07300 | 22675 ft | 420 kts | 280° |
| 2026-05-04 20:42 | 51.44075 | 2.02701 | 22107 ft | 420 kts | 280° |
| 2026-05-04 20:42 | 51.44620 | 1.98177 | 21556 ft | 419 kts | 280° |
| 2026-05-04 20:42 | 51.45165 | 1.93612 | 21006 ft | 414 kts | 279° |
| 2026-05-04 20:43 | 51.45701 | 1.89097 | 20467 ft | 410 kts | 279° |
| 2026-05-04 20:43 | 51.46226 | 1.84632 | 19932 ft | 405 kts | 279° |
| 2026-05-04 20:43 | 51.46735 | 1.80208 | 19403 ft | 402 kts | 279° |
| 2026-05-04 20:43 | 51.47236 | 1.75817 | 18878 ft | 399 kts | 279° |
| 2026-05-04 20:44 | 51.47734 | 1.71461 | 18360 ft | 396 kts | 279° |
| 2026-05-04 20:44 | 51.48228 | 1.67128 | 17754 ft | 394 kts | 279° |
| 2026-05-04 20:44 | 51.48660 | 1.62806 | 17191 ft | 391 kts | 272° |
| 2026-05-04 20:44 | 51.48373 | 1.58579 | 16696 ft | 386 kts | 253° |
| 2026-05-04 20:45 | 51.47471 | 1.54549 | 16199 ft | 382 kts | 248° |
| 2026-05-04 20:45 | 51.46504 | 1.50589 | 15681 ft | 381 kts | 248° |
| 2026-05-04 20:45 | 51.45559 | 1.46636 | 15177 ft | 379 kts | 249° |
| 2026-05-04 20:45 | 51.44635 | 1.42680 | 14675 ft | 378 kts | 249° |
| 2026-05-04 20:46 | 51.43637 | 1.38794 | 14166 ft | 377 kts | 239° |
| 2026-05-04 20:46 | 51.41968 | 1.35623 | 13934 ft | 371 kts | 220° |
| 2026-05-04 20:46 | 51.39934 | 1.33039 | 13693 ft | 375 kts | 216° |
| 2026-05-04 20:46 | 51.37822 | 1.30576 | 13486 ft | 376 kts | 215° |
| 2026-05-04 20:47 | 51.35726 | 1.28180 | 13276 ft | 374 kts | 215° |
| 2026-05-04 20:47 | 51.33622 | 1.25766 | 13077 ft | 371 kts | 215° |
| 2026-05-04 20:47 | 51.31549 | 1.23366 | 12879 ft | 369 kts | 215° |
| 2026-05-04 20:47 | 51.29486 | 1.20960 | 12684 ft | 368 kts | 216° |
| 2026-05-04 20:48 | 51.27419 | 1.18539 | 12500 ft | 367 kts | 216° |
| 2026-05-04 20:48 | 51.25358 | 1.16118 | 12309 ft | 367 kts | 216° |
| 2026-05-04 20:48 | 51.23289 | 1.13687 | 12116 ft | 367 kts | 216° |
| 2026-05-04 20:48 | 51.21235 | 1.11276 | 11927 ft | 367 kts | 216° |
| 2026-05-04 20:49 | 51.19181 | 1.08865 | 11735 ft | 366 kts | 216° |
| 2026-05-04 20:49 | 51.17157 | 1.06494 | 11546 ft | 366 kts | 216° |
| 2026-05-04 20:49 | 51.15107 | 1.04093 | 11354 ft | 365 kts | 216° |
| 2026-05-04 20:49 | 51.13071 | 1.01712 | 11156 ft | 359 kts | 216° |
| 2026-05-04 20:50 | 51.11090 | 0.99397 | 10964 ft | 348 kts | 216° |
| 2026-05-04 20:50 | 51.09163 | 0.97149 | 10781 ft | 339 kts | 216° |
| 2026-05-04 20:50 | 51.07288 | 0.94965 | 10610 ft | 330 kts | 216° |
| 2026-05-04 20:50 | 51.05614 | 0.92563 | 10419 ft | 322 kts | 234° |
| 2026-05-04 20:51 | 51.04554 | 0.89490 | 10291 ft | 313 kts | 244° |
| 2026-05-04 20:51 | 51.03649 | 0.86395 | 10174 ft | 304 kts | 245° |
| 2026-05-04 20:51 | 51.02790 | 0.83427 | 10061 ft | 296 kts | 245° |
| 2026-05-04 20:51 | 51.01937 | 0.80504 | 10030 ft | 289 kts | 245° |
| 2026-05-04 20:52 | 51.01093 | 0.77642 | 10023 ft | 285 kts | 244° |
| 2026-05-04 20:52 | 51.00241 | 0.74780 | 10035 ft | 288 kts | 244° |
| 2026-05-04 20:52 | 50.99372 | 0.71879 | 10038 ft | 292 kts | 244° |
| 2026-05-04 20:52 | 50.98500 | 0.68972 | 10028 ft | 291 kts | 244° |
| 2026-05-04 20:53 | 50.97629 | 0.66074 | 10021 ft | 290 kts | 244° |
| 2026-05-04 20:53 | 50.96760 | 0.63190 | 10019 ft | 289 kts | 244° |
| 2026-05-04 20:53 | 50.95908 | 0.60363 | 9917 ft | 287 kts | 244° |
| 2026-05-04 20:53 | 50.95050 | 0.57517 | 9627 ft | 286 kts | 244° |
| 2026-05-04 20:54 | 50.94188 | 0.54661 | 9269 ft | 287 kts | 244° |
| 2026-05-04 20:54 | 50.93325 | 0.51807 | 8955 ft | 287 kts | 244° |
| 2026-05-04 20:54 | 50.92461 | 0.48958 | 8678 ft | 286 kts | 244° |
| 2026-05-04 20:54 | 50.91637 | 0.46105 | 8403 ft | 284 kts | 252° |
| 2026-05-04 20:55 | 50.91470 | 0.43028 | 8113 ft | 282 kts | 279° |
| 2026-05-04 20:55 | 50.91947 | 0.40058 | 8009 ft | 274 kts | 287° |
| 2026-05-04 20:55 | 50.92489 | 0.37256 | 7932 ft | 265 kts | 287° |
| 2026-05-04 20:55 | 50.93015 | 0.34501 | 7867 ft | 257 kts | 287° |
| 2026-05-04 20:56 | 50.93515 | 0.31828 | 7812 ft | 249 kts | 287° |
| 2026-05-04 20:56 | 50.93993 | 0.29237 | 7728 ft | 241 kts | 287° |
| 2026-05-04 20:56 | 50.94458 | 0.26699 | 7528 ft | 239 kts | 287° |
| 2026-05-04 20:56 | 50.94922 | 0.24167 | 7309 ft | 239 kts | 287° |
| 2026-05-04 20:57 | 50.95381 | 0.21640 | 7093 ft | 238 kts | 287° |
| 2026-05-04 20:57 | 50.95712 | 0.19085 | 7033 ft | 235 kts | 276° |
| 2026-05-04 20:57 | 50.95702 | 0.16502 | 7022 ft | 235 kts | 264° |
| 2026-05-04 20:57 | 50.95372 | 0.13953 | 7033 ft | 238 kts | 256° |
| 2026-05-04 20:58 | 50.94941 | 0.11432 | 7037 ft | 241 kts | 255° |
| 2026-05-04 20:58 | 50.94547 | 0.08856 | 7014 ft | 240 kts | 259° |
| 2026-05-04 20:58 | 50.94222 | 0.06271 | 7011 ft | 239 kts | 259° |
| 2026-05-04 20:58 | 50.93911 | 0.03696 | 7007 ft | 237 kts | 260° |
| 2026-05-04 20:59 | 50.93603 | 0.01129 | 6891 ft | 236 kts | 260° |
| 2026-05-04 20:59 | 50.93294 | -0.01425 | 6646 ft | 236 kts | 260° |
| 2026-05-04 20:59 | 50.93207 | -0.04023 | 6361 ft | 238 kts | 277° |
| 2026-05-04 20:59 | 50.93441 | -0.06616 | 6110 ft | 237 kts | 280° |
| 2026-05-04 21:00 | 50.93713 | -0.09194 | 5875 ft | 237 kts | 281° |
| 2026-05-04 21:00 | 50.93983 | -0.11738 | 5629 ft | 237 kts | 281° |
| 2026-05-04 21:00 | 50.94256 | -0.14307 | 5410 ft | 236 kts | 281° |
| 2026-05-04 21:00 | 50.94530 | -0.16875 | 5133 ft | 236 kts | 281° |
| 2026-05-04 21:01 | 50.94806 | -0.19428 | 5020 ft | 234 kts | 281° |
| 2026-05-04 21:01 | 50.95080 | -0.21961 | 4802 ft | 234 kts | 281° |
| 2026-05-04 21:01 | 50.95350 | -0.24501 | 4541 ft | 234 kts | 281° |
| 2026-05-04 21:01 | 50.95619 | -0.27037 | 4308 ft | 233 kts | 281° |
| 2026-05-04 21:02 | 50.95890 | -0.29559 | 4088 ft | 232 kts | 281° |
| 2026-05-04 21:02 | 50.96164 | -0.32093 | 4028 ft | 233 kts | 281° |
| 2026-05-04 21:02 | 50.96433 | -0.34593 | 3971 ft | 232 kts | 281° |
| 2026-05-04 21:02 | 50.96855 | -0.37021 | 3751 ft | 227 kts | 305° |
| 2026-05-04 21:03 | 50.97880 | -0.38880 | 3652 ft | 224 kts | 314° |
| 2026-05-04 21:03 | 50.98887 | -0.40801 | 3517 ft | 228 kts | 310° |
| 2026-05-04 21:03 | 50.99644 | -0.43024 | 3351 ft | 233 kts | 282° |
| 2026-05-04 21:03 | 50.99661 | -0.45569 | 3235 ft | 231 kts | 264° |
| 2026-05-04 21:04 | 50.99465 | -0.48102 | 3097 ft | 232 kts | 263° |
| 2026-05-04 21:04 | 50.99248 | -0.50637 | 3000 ft | 232 kts | 263° |
| 2026-05-04 21:04 | 50.99072 | -0.53139 | 2993 ft | 230 kts | 273° |
| 2026-05-04 21:04 | 50.99521 | -0.55467 | 3001 ft | 214 kts | 308° |
| 2026-05-04 21:05 | 51.00613 | -0.56843 | 2987 ft | 192 kts | 340° |
| 2026-05-04 21:05 | 51.01864 | -0.57454 | 3000 ft | 186 kts | 349° |
| 2026-05-04 21:05 | 51.03117 | -0.57924 | 3001 ft | 185 kts | 349° |
| 2026-05-04 21:05 | 51.04368 | -0.58381 | 2988 ft | 184 kts | 349° |
| 2026-05-04 21:06 | 51.05611 | -0.58831 | 2997 ft | 183 kts | 350° |
| 2026-05-04 21:06 | 51.06858 | -0.59270 | 2994 ft | 183 kts | 354° |
| 2026-05-04 21:06 | 51.08070 | -0.58964 | 2994 ft | 177 kts | 34° |
| 2026-05-04 21:06 | 51.08811 | -0.57506 | 3000 ft | 176 kts | 71° |
| 2026-05-04 21:07 | 51.09191 | -0.55620 | 2993 ft | 182 kts | 62° |
| 2026-05-04 21:07 | 51.09802 | -0.53876 | 2998 ft | 180 kts | 63° |
| 2026-05-04 21:07 | 51.10217 | -0.52008 | 3008 ft | 179 kts | 75° |
| 2026-05-04 21:07 | 51.10514 | -0.50081 | 2999 ft | 179 kts | 75° |
| 2026-05-04 21:08 | 51.10824 | -0.48160 | 2996 ft | 179 kts | 76° |
| 2026-05-04 21:08 | 51.11108 | -0.46228 | 3007 ft | 179 kts | 76° |
| 2026-05-04 21:08 | 51.11376 | -0.44285 | 2995 ft | 180 kts | 77° |
| 2026-05-04 21:08 | 51.11637 | -0.42362 | 2934 ft | 182 kts | 77° |
| 2026-05-04 21:09 | 51.11905 | -0.40374 | 2713 ft | 184 kts | 77° |
| 2026-05-04 21:09 | 51.12171 | -0.38405 | 2464 ft | 180 kts | 77° |
| 2026-05-04 21:09 | 51.12432 | -0.36482 | 2226 ft | 176 kts | 77° |
| 2026-05-04 21:09 | 51.12687 | -0.34599 | 1985 ft | 172 kts | 77° |
| 2026-05-04 21:10 | 51.12932 | -0.32801 | 1765 ft | 160 kts | 77° |
| 2026-05-04 21:10 | 51.13154 | -0.31162 | 1566 ft | 145 kts | 77° |
| 2026-05-04 21:10 | 51.13361 | -0.29649 | 1378 ft | 141 kts | 77° |
| 2026-05-04 21:10 | 51.13565 | -0.28149 | 1183 ft | 140 kts | 76° |
| 2026-05-04 21:11 | 51.13763 | -0.26647 | 985 ft | 138 kts | 77° |
| 2026-05-04 21:11 | 51.13965 | -0.25161 | 797 ft | 136 kts | 76° |
| 2026-05-04 21:11 | 51.14168 | -0.23670 | 638 ft | 138 kts | 76° |
| 2026-05-04 21:11 | 51.14377 | -0.22181 | 435 ft | 138 kts | 77° |
| 2026-05-04 21:12 | 51.14583 | -0.20693 | 255 ft | 137 kts | 76° |
| 2026-05-04 21:12 | 51.14773 | -0.19330 | 206 ft | 92 kts | 78° |
| 2026-05-04 21:12 | 51.14840 | -0.18839 | 205 ft | 27 kts | 77° |
| 2026-05-04 21:12 | 51.14932 | -0.18531 | 208 ft | 31 kts | 51° |
| 2026-05-04 21:13 | 51.15050 | -0.18298 | 208 ft | 25 kts | 52° |
| 2026-05-04 21:13 | 51.15121 | -0.18186 | 209 ft | 10 kts | 11° |
| 2026-05-04 21:13 | 51.15186 | -0.18183 | 209 ft | 10 kts | 38° |
| 2026-05-04 21:13 | 51.15213 | -0.18076 | 203 ft | 12 kts | 78° |
| 2026-05-04 21:14 | 51.15234 | -0.17942 | 209 ft | 12 kts | 76° |
| 2026-05-04 21:14 | 51.15248 | -0.17808 | 208 ft | 12 kts | 81° |
| 2026-05-04 21:14 | 51.15273 | -0.17641 | 204 ft | 22 kts | 77° |
| 2026-05-04 21:14 | 51.15303 | -0.17412 | 214 ft | 13 kts | 76° |
| 2026-05-04 21:15 | 51.15357 | -0.17330 | 208 ft | 11 kts | 62° |
| 2026-05-04 21:15 | 51.15381 | -0.17217 | 207 ft | 11 kts | 72° |
| 2026-05-04 21:15 | 51.15408 | -0.17111 | 207 ft | 10 kts | 73° |
| 2026-05-04 21:15 | 51.15426 | -0.16990 | 203 ft | 13 kts | 77° |
| 2026-05-04 21:16 | 51.15446 | -0.16841 | 212 ft | 14 kts | 77° |
| 2026-05-04 21:16 | 51.15448 | -0.16712 | 206 ft | 5 kts | 62° |
| 2026-05-04 21:16 | 51.15483 | -0.16707 | 203 ft | 5 kts | 350° |
| 2026-05-04 21:16 | 51.15510 | -0.16717 | 207 ft | 1 kts | 348° |
| 2026-05-04 21:17 | 51.15512 | -0.16717 | 212 ft | 0 kts | 348° |
| 2026-05-04 21:17 | 51.15513 | -0.16718 | 212 ft | 0 kts | 348° |